sensor_id;sensor_type;location;lat;lon;timestamp;temperature;humidity
14682;DHT22;7429;52.498;13.480;2023-02-10T00:00:44;0.80;99.90
14682;DHT22;7429;52.498;13.480;2023-02-10T00:03:48;0.80;99.90
14682;DHT22;7429;52.498;13.480;2023-02-10T00:06:51;0.90;99.90
14682;DHT22;7429;52.498;13.480;2023-02-10T00:09:56;1.00;99.90
14682;DHT22;7429;52.498;13.480;2023-02-10T00:12:59;1.00;99.90
14682;DHT22;7429;52.498;13.480;2023-02-10T00:16:04;1.10;99.90
14682;DHT22;7429;52.498;13.480;2023-02-10T00:19:08;1.10;99.90
14682;DHT22;7429;52.498;13.480;2023-02-10T00:22:11;1.20;99.90
14682;DHT22;7429;52.498;13.480;2023-02-10T00:25:16;1.20;99.90
14682;DHT22;7429;52.498;13.480;2023-02-10T00:28:19;1.30;99.90
14682;DHT22;7429;52.498;13.480;2023-02-10T00:31:22;1.30;99.90
14682;DHT22;7429;52.498;13.480;2023-02-10T00:34:25;1.30;99.90
14682;DHT22;7429;52.498;13.480;2023-02-10T00:37:29;1.40;99.90
14682;DHT22;7429;52.498;13.480;2023-02-10T00:40:34;1.40;99.90
14682;DHT22;7429;52.498;13.480;2023-02-10T00:43:37;1.40;99.90
14682;DHT22;7429;52.498;13.480;2023-02-10T00:46:41;1.40;99.90
14682;DHT22;7429;52.498;13.480;2023-02-10T00:49:45;1.40;99.90
14682;DHT22;7429;52.498;13.480;2023-02-10T00:52:48;1.50;99.90
14682;DHT22;7429;52.498;13.480;2023-02-10T00:55:52;1.60;99.90
14682;DHT22;7429;52.498;13.480;2023-02-10T00:58:57;1.60;99.90
14682;DHT22;7429;52.498;13.480;2023-02-10T01:02:01;1.70;99.90
14682;DHT22;7429;52.498;13.480;2023-02-10T01:05:06;1.70;99.90
14682;DHT22;7429;52.498;13.480;2023-02-10T01:08:09;1.80;99.90
14682;DHT22;7429;52.498;13.480;2023-02-10T01:11:15;1.80;99.90
14682;DHT22;7429;52.498;13.480;2023-02-10T01:14:20;1.80;99.90
14682;DHT22;7429;52.498;13.480;2023-02-10T01:17:25;1.80;99.90
14682;DHT22;7429;52.498;13.480;2023-02-10T01:20:30;1.80;99.90
14682;DHT22;7429;52.498;13.480;2023-02-10T01:23:35;1.80;99.90
14682;DHT22;7429;52.498;13.480;2023-02-10T01:26:40;1.80;99.90
14682;DHT22;7429;52.498;13.480;2023-02-10T01:29:43;1.80;99.90
14682;DHT22;7429;52.498;13.480;2023-02-10T01:32:46;1.80;99.90
14682;DHT22;7429;52.498;13.480;2023-02-10T01:35:49;1.70;99.90
14682;DHT22;7429;52.498;13.480;2023-02-10T01:38:52;1.70;99.90
14682;DHT22;7429;52.498;13.480;2023-02-10T01:41:57;1.70;99.90
14682;DHT22;7429;52.498;13.480;2023-02-10T01:45:19;1.70;99.90
14682;DHT22;7429;52.498;13.480;2023-02-10T01:48:24;1.60;99.90
14682;DHT22;7429;52.498;13.480;2023-02-10T01:51:33;1.60;99.90
14682;DHT22;7429;52.498;13.480;2023-02-10T01:54:44;1.60;99.90
14682;DHT22;7429;52.498;13.480;2023-02-10T01:57:51;1.50;99.90
14682;DHT22;7429;52.498;13.480;2023-02-10T02:00:56;1.50;99.90
14682;DHT22;7429;52.498;13.480;2023-02-10T02:04:00;1.50;99.90
14682;DHT22;7429;52.498;13.480;2023-02-10T02:07:04;1.40;99.90
14682;DHT22;7429;52.498;13.480;2023-02-10T02:10:08;1.40;99.90
14682;DHT22;7429;52.498;13.480;2023-02-10T02:13:18;1.40;99.90
14682;DHT22;7429;52.498;13.480;2023-02-10T02:16:34;1.40;99.90
14682;DHT22;7429;52.498;13.480;2023-02-10T02:20:09;1.40;99.90
14682;DHT22;7429;52.498;13.480;2023-02-10T02:23:52;1.40;99.90
14682;DHT22;7429;52.498;13.480;2023-02-10T02:31:26;1.30;99.90
14682;DHT22;7429;52.498;13.480;2023-02-10T02:34:38;1.30;99.90
14682;DHT22;7429;52.498;13.480;2023-02-10T02:37:46;1.30;99.90
14682;DHT22;7429;52.498;13.480;2023-02-10T02:40:54;1.30;99.90
14682;DHT22;7429;52.498;13.480;2023-02-10T02:43:58;1.20;99.90
14682;DHT22;7429;52.498;13.480;2023-02-10T02:47:11;1.20;99.90
14682;DHT22;7429;52.498;13.480;2023-02-10T02:50:23;1.20;99.90
14682;DHT22;7429;52.498;13.480;2023-02-10T02:53:35;1.10;99.90
14682;DHT22;7429;52.498;13.480;2023-02-10T02:56:45;1.10;99.90
14682;DHT22;7429;52.498;13.480;2023-02-10T02:59:58;1.10;99.90
14682;DHT22;7429;52.498;13.480;2023-02-10T03:03:09;1.10;99.90
14682;DHT22;7429;52.498;13.480;2023-02-10T03:06:12;1.10;99.90
14682;DHT22;7429;52.498;13.480;2023-02-10T03:09:16;1.00;99.90
14682;DHT22;7429;52.498;13.480;2023-02-10T03:12:20;1.00;99.90
14682;DHT22;7429;52.498;13.480;2023-02-10T03:15:23;0.90;99.90
14682;DHT22;7429;52.498;13.480;2023-02-10T03:18:29;0.90;99.90
14682;DHT22;7429;52.498;13.480;2023-02-10T03:21:33;0.90;99.90
14682;DHT22;7429;52.498;13.480;2023-02-10T03:24:37;0.90;99.90
14682;DHT22;7429;52.498;13.480;2023-02-10T03:27:41;0.90;99.90
14682;DHT22;7429;52.498;13.480;2023-02-10T03:30:47;0.80;99.90
14682;DHT22;7429;52.498;13.480;2023-02-10T03:33:52;0.90;99.90
14682;DHT22;7429;52.498;13.480;2023-02-10T03:36:55;0.90;99.90
14682;DHT22;7429;52.498;13.480;2023-02-10T03:39:58;0.90;99.90
14682;DHT22;7429;52.498;13.480;2023-02-10T03:43:02;0.90;99.90
14682;DHT22;7429;52.498;13.480;2023-02-10T03:46:09;0.90;99.90
14682;DHT22;7429;52.498;13.480;2023-02-10T03:49:13;0.90;99.90
14682;DHT22;7429;52.498;13.480;2023-02-10T03:52:17;1.00;99.90
14682;DHT22;7429;52.498;13.480;2023-02-10T03:55:20;1.00;99.90
14682;DHT22;7429;52.498;13.480;2023-02-10T03:58:24;1.10;99.90
14682;DHT22;7429;52.498;13.480;2023-02-10T04:01:27;1.10;99.90
14682;DHT22;7429;52.498;13.480;2023-02-10T04:04:32;1.10;99.90
14682;DHT22;7429;52.498;13.480;2023-02-10T04:07:35;1.20;99.90
14682;DHT22;7429;52.498;13.480;2023-02-10T04:10:38;1.20;99.90
14682;DHT22;7429;52.498;13.480;2023-02-10T04:13:42;1.20;99.90
14682;DHT22;7429;52.498;13.480;2023-02-10T04:16:45;1.20;99.90
14682;DHT22;7429;52.498;13.480;2023-02-10T04:19:49;1.20;99.90
14682;DHT22;7429;52.498;13.480;2023-02-10T04:22:52;1.30;99.90
14682;DHT22;7429;52.498;13.480;2023-02-10T04:25:56;1.30;99.90
14682;DHT22;7429;52.498;13.480;2023-02-10T04:28:59;1.30;99.90
14682;DHT22;7429;52.498;13.480;2023-02-10T04:32:03;1.30;99.90
14682;DHT22;7429;52.498;13.480;2023-02-10T04:35:08;1.30;99.90
14682;DHT22;7429;52.498;13.480;2023-02-10T04:38:12;1.30;99.90
14682;DHT22;7429;52.498;13.480;2023-02-10T04:41:15;1.30;99.90
14682;DHT22;7429;52.498;13.480;2023-02-10T04:44:18;1.40;99.90
14682;DHT22;7429;52.498;13.480;2023-02-10T04:47:21;1.40;99.90
14682;DHT22;7429;52.498;13.480;2023-02-10T04:50:26;1.40;99.90
14682;DHT22;7429;52.498;13.480;2023-02-10T04:53:29;1.40;99.90
14682;DHT22;7429;52.498;13.480;2023-02-10T04:56:32;1.40;99.90
14682;DHT22;7429;52.498;13.480;2023-02-10T04:59:35;1.40;99.90
14682;DHT22;7429;52.498;13.480;2023-02-10T05:02:38;1.40;99.90
14682;DHT22;7429;52.498;13.480;2023-02-10T05:05:44;1.40;99.90
14682;DHT22;7429;52.498;13.480;2023-02-10T05:08:47;1.50;99.90
14682;DHT22;7429;52.498;13.480;2023-02-10T05:11:51;1.50;99.90
14682;DHT22;7429;52.498;13.480;2023-02-10T05:14:54;1.50;99.90
14682;DHT22;7429;52.498;13.480;2023-02-10T05:17:57;1.50;99.90
14682;DHT22;7429;52.498;13.480;2023-02-10T05:21:02;1.50;99.90
14682;DHT22;7429;52.498;13.480;2023-02-10T05:24:05;1.60;99.90
14682;DHT22;7429;52.498;13.480;2023-02-10T05:27:08;1.60;99.90
14682;DHT22;7429;52.498;13.480;2023-02-10T05:30:12;1.60;99.90
14682;DHT22;7429;52.498;13.480;2023-02-10T05:33:16;1.70;99.90
14682;DHT22;7429;52.498;13.480;2023-02-10T05:36:23;1.70;99.90
14682;DHT22;7429;52.498;13.480;2023-02-10T05:39:32;1.70;99.90
14682;DHT22;7429;52.498;13.480;2023-02-10T05:42:35;1.70;99.90
14682;DHT22;7429;52.498;13.480;2023-02-10T05:45:41;1.70;99.90
14682;DHT22;7429;52.498;13.480;2023-02-10T05:48:45;1.70;99.90
14682;DHT22;7429;52.498;13.480;2023-02-10T05:51:49;1.60;99.90
14682;DHT22;7429;52.498;13.480;2023-02-10T05:54:53;1.60;99.90
14682;DHT22;7429;52.498;13.480;2023-02-10T05:57:57;1.60;99.90
14682;DHT22;7429;52.498;13.480;2023-02-10T06:01:00;1.50;99.90
14682;DHT22;7429;52.498;13.480;2023-02-10T06:04:04;1.50;99.90
14682;DHT22;7429;52.498;13.480;2023-02-10T06:07:08;1.50;99.90
14682;DHT22;7429;52.498;13.480;2023-02-10T06:10:12;1.40;99.90
14682;DHT22;7429;52.498;13.480;2023-02-10T06:13:15;1.40;99.90
14682;DHT22;7429;52.498;13.480;2023-02-10T06:16:18;1.40;99.90
14682;DHT22;7429;52.498;13.480;2023-02-10T06:19:23;1.40;99.90
14682;DHT22;7429;52.498;13.480;2023-02-10T06:22:33;1.40;99.90
14682;DHT22;7429;52.498;13.480;2023-02-10T06:25:38;1.40;99.90
14682;DHT22;7429;52.498;13.480;2023-02-10T06:28:41;1.40;99.90
14682;DHT22;7429;52.498;13.480;2023-02-10T06:31:47;1.40;99.90
14682;DHT22;7429;52.498;13.480;2023-02-10T06:34:58;1.40;99.90
14682;DHT22;7429;52.498;13.480;2023-02-10T06:38:07;1.30;99.90
14682;DHT22;7429;52.498;13.480;2023-02-10T06:41:11;1.30;99.90
14682;DHT22;7429;52.498;13.480;2023-02-10T06:44:20;1.30;99.90
14682;DHT22;7429;52.498;13.480;2023-02-10T06:47:26;1.30;99.90
14682;DHT22;7429;52.498;13.480;2023-02-10T06:50:30;1.30;99.90
14682;DHT22;7429;52.498;13.480;2023-02-10T06:53:34;1.30;99.90
14682;DHT22;7429;52.498;13.480;2023-02-10T06:56:40;1.30;99.90
14682;DHT22;7429;52.498;13.480;2023-02-10T06:59:44;1.40;99.90
14682;DHT22;7429;52.498;13.480;2023-02-10T07:02:47;1.30;99.90
14682;DHT22;7429;52.498;13.480;2023-02-10T07:05:51;1.30;99.90
14682;DHT22;7429;52.498;13.480;2023-02-10T07:08:56;1.30;99.90
14682;DHT22;7429;52.498;13.480;2023-02-10T07:12:00;1.30;99.90
14682;DHT22;7429;52.498;13.480;2023-02-10T07:15:04;1.30;99.90
14682;DHT22;7429;52.498;13.480;2023-02-10T07:18:07;1.30;99.90
14682;DHT22;7429;52.498;13.480;2023-02-10T07:21:13;1.30;99.90
14682;DHT22;7429;52.498;13.480;2023-02-10T07:24:18;1.40;99.90
14682;DHT22;7429;52.498;13.480;2023-02-10T07:27:21;1.40;99.90
14682;DHT22;7429;52.498;13.480;2023-02-10T07:30:25;1.40;99.90
14682;DHT22;7429;52.498;13.480;2023-02-10T07:33:28;1.40;99.90
14682;DHT22;7429;52.498;13.480;2023-02-10T07:36:31;1.50;99.90
14682;DHT22;7429;52.498;13.480;2023-02-10T07:39:36;1.50;99.90
14682;DHT22;7429;52.498;13.480;2023-02-10T07:42:44;1.50;99.90
14682;DHT22;7429;52.498;13.480;2023-02-10T07:46:08;1.60;99.90
14682;DHT22;7429;52.498;13.480;2023-02-10T07:49:11;1.60;99.90
14682;DHT22;7429;52.498;13.480;2023-02-10T07:52:14;1.70;99.90
14682;DHT22;7429;52.498;13.480;2023-02-10T07:55:19;1.80;99.90
14682;DHT22;7429;52.498;13.480;2023-02-10T07:58:23;1.70;99.90
14682;DHT22;7429;52.498;13.480;2023-02-10T08:01:26;1.80;99.90
14682;DHT22;7429;52.498;13.480;2023-02-10T08:04:30;1.80;99.90
14682;DHT22;7429;52.498;13.480;2023-02-10T08:07:33;1.90;99.90
14682;DHT22;7429;52.498;13.480;2023-02-10T08:10:38;1.90;99.90
14682;DHT22;7429;52.498;13.480;2023-02-10T08:13:42;1.90;99.90
14682;DHT22;7429;52.498;13.480;2023-02-10T08:16:46;2.00;99.90
14682;DHT22;7429;52.498;13.480;2023-02-10T08:19:50;2.00;99.90
14682;DHT22;7429;52.498;13.480;2023-02-10T08:22:53;2.10;99.90
14682;DHT22;7429;52.498;13.480;2023-02-10T08:26:02;2.20;99.90
14682;DHT22;7429;52.498;13.480;2023-02-10T08:29:07;2.30;99.90
14682;DHT22;7429;52.498;13.480;2023-02-10T08:32:10;2.40;99.90
14682;DHT22;7429;52.498;13.480;2023-02-10T08:35:14;2.40;99.90
14682;DHT22;7429;52.498;13.480;2023-02-10T08:38:17;2.60;99.90
14682;DHT22;7429;52.498;13.480;2023-02-10T08:41:22;2.70;99.90
14682;DHT22;7429;52.498;13.480;2023-02-10T08:44:25;2.80;99.90
14682;DHT22;7429;52.498;13.480;2023-02-10T08:47:28;2.80;99.90
14682;DHT22;7429;52.498;13.480;2023-02-10T08:50:31;3.00;99.90
14682;DHT22;7429;52.498;13.480;2023-02-10T08:53:35;3.00;99.90
14682;DHT22;7429;52.498;13.480;2023-02-10T08:56:39;3.10;99.90
14682;DHT22;7429;52.498;13.480;2023-02-10T08:59:43;3.10;99.90
14682;DHT22;7429;52.498;13.480;2023-02-10T09:02:48;3.20;99.90
14682;DHT22;7429;52.498;13.480;2023-02-10T09:05:52;3.30;99.90
14682;DHT22;7429;52.498;13.480;2023-02-10T09:08:56;3.40;99.90
14682;DHT22;7429;52.498;13.480;2023-02-10T09:12:03;3.40;99.90
14682;DHT22;7429;52.498;13.480;2023-02-10T09:15:08;3.50;99.90
14682;DHT22;7429;52.498;13.480;2023-02-10T09:18:12;3.50;99.90
14682;DHT22;7429;52.498;13.480;2023-02-10T09:21:15;3.60;99.90
14682;DHT22;7429;52.498;13.480;2023-02-10T09:24:18;3.60;99.90
14682;DHT22;7429;52.498;13.480;2023-02-10T09:27:23;3.60;99.90
14682;DHT22;7429;52.498;13.480;2023-02-10T09:30:26;3.60;99.90
14682;DHT22;7429;52.498;13.480;2023-02-10T09:33:30;3.70;99.90
14682;DHT22;7429;52.498;13.480;2023-02-10T09:36:33;3.70;99.90
14682;DHT22;7429;52.498;13.480;2023-02-10T09:39:36;3.70;99.90
14682;DHT22;7429;52.498;13.480;2023-02-10T09:42:51;3.80;99.90
14682;DHT22;7429;52.498;13.480;2023-02-10T09:46:09;3.80;99.90
14682;DHT22;7429;52.498;13.480;2023-02-10T09:49:30;3.90;99.90
14682;DHT22;7429;52.498;13.480;2023-02-10T09:53:00;4.00;99.90
14682;DHT22;7429;52.498;13.480;2023-02-10T09:56:12;4.00;99.90
14682;DHT22;7429;52.498;13.480;2023-02-10T09:59:23;4.00;99.90
14682;DHT22;7429;52.498;13.480;2023-02-10T10:02:31;4.10;99.90
14682;DHT22;7429;52.498;13.480;2023-02-10T10:05:45;4.10;99.90
14682;DHT22;7429;52.498;13.480;2023-02-10T10:08:59;4.10;99.90
14682;DHT22;7429;52.498;13.480;2023-02-10T10:12:08;4.20;99.90
14682;DHT22;7429;52.498;13.480;2023-02-10T10:15:16;4.10;99.90
14682;DHT22;7429;52.498;13.480;2023-02-10T10:18:25;4.20;99.90
14682;DHT22;7429;52.498;13.480;2023-02-10T10:21:36;4.20;99.90
14682;DHT22;7429;52.498;13.480;2023-02-10T10:25:20;4.20;99.90
14682;DHT22;7429;52.498;13.480;2023-02-10T10:28:40;4.20;99.90
14682;DHT22;7429;52.498;13.480;2023-02-10T10:31:56;4.20;99.90
14682;DHT22;7429;52.498;13.480;2023-02-10T10:35:02;4.20;99.90
14682;DHT22;7429;52.498;13.480;2023-02-10T10:38:12;4.30;99.90
14682;DHT22;7429;52.498;13.480;2023-02-10T10:41:18;4.20;99.90
14682;DHT22;7429;52.498;13.480;2023-02-10T10:44:26;4.30;99.90
14682;DHT22;7429;52.498;13.480;2023-02-10T10:47:39;4.30;99.90
14682;DHT22;7429;52.498;13.480;2023-02-10T10:50:45;4.40;99.90
14682;DHT22;7429;52.498;13.480;2023-02-10T10:53:50;4.40;99.90
14682;DHT22;7429;52.498;13.480;2023-02-10T10:56:56;4.40;99.90
14682;DHT22;7429;52.498;13.480;2023-02-10T11:00:09;4.50;99.90
14682;DHT22;7429;52.498;13.480;2023-02-10T11:03:20;4.50;99.90
14682;DHT22;7429;52.498;13.480;2023-02-10T11:06:26;4.50;99.90
14682;DHT22;7429;52.498;13.480;2023-02-10T11:09:39;4.60;99.90
14682;DHT22;7429;52.498;13.480;2023-02-10T11:12:45;4.50;99.90
14682;DHT22;7429;52.498;13.480;2023-02-10T11:15:49;4.60;99.90
14682;DHT22;7429;52.498;13.480;2023-02-10T11:18:56;4.60;99.90
14682;DHT22;7429;52.498;13.480;2023-02-10T11:22:00;4.60;99.90
14682;DHT22;7429;52.498;13.480;2023-02-10T11:25:24;4.70;99.90
14682;DHT22;7429;52.498;13.480;2023-02-10T11:28:31;4.70;99.90
14682;DHT22;7429;52.498;13.480;2023-02-10T11:31:35;4.90;99.90
14682;DHT22;7429;52.498;13.480;2023-02-10T11:34:44;5.00;99.90
14682;DHT22;7429;52.498;13.480;2023-02-10T11:37:52;5.10;99.90
14682;DHT22;7429;52.498;13.480;2023-02-10T11:40:59;5.20;99.90
14682;DHT22;7429;52.498;13.480;2023-02-10T11:44:14;5.40;99.90
14682;DHT22;7429;52.498;13.480;2023-02-10T11:47:28;5.50;99.90
14682;DHT22;7429;52.498;13.480;2023-02-10T11:50:35;5.60;99.90
14682;DHT22;7429;52.498;13.480;2023-02-10T11:53:40;5.60;99.90
14682;DHT22;7429;52.498;13.480;2023-02-10T11:56:50;5.80;99.90
14682;DHT22;7429;52.498;13.480;2023-02-10T12:00:21;5.80;99.90
14682;DHT22;7429;52.498;13.480;2023-02-10T12:03:35;5.80;99.90
14682;DHT22;7429;52.498;13.480;2023-02-10T12:06:54;5.90;99.90
14682;DHT22;7429;52.498;13.480;2023-02-10T12:10:10;6.00;99.90
14682;DHT22;7429;52.498;13.480;2023-02-10T12:13:26;6.00;99.90
14682;DHT22;7429;52.498;13.480;2023-02-10T12:16:40;6.10;99.90
14682;DHT22;7429;52.498;13.480;2023-02-10T12:19:55;6.10;99.90
14682;DHT22;7429;52.498;13.480;2023-02-10T12:23:25;6.00;99.90
14682;DHT22;7429;52.498;13.480;2023-02-10T12:26:48;6.00;99.90
14682;DHT22;7429;52.498;13.480;2023-02-10T12:30:02;5.90;99.90
14682;DHT22;7429;52.498;13.480;2023-02-10T12:33:38;6.10;99.90
14682;DHT22;7429;52.498;13.480;2023-02-10T12:36:59;6.20;99.90
14682;DHT22;7429;52.498;13.480;2023-02-10T12:40:26;6.30;99.90
14682;DHT22;7429;52.498;13.480;2023-02-10T12:43:49;6.60;99.90
14682;DHT22;7429;52.498;13.480;2023-02-10T12:47:14;6.70;99.90
14682;DHT22;7429;52.498;13.480;2023-02-10T12:50:43;6.70;99.90
14682;DHT22;7429;52.498;13.480;2023-02-10T12:53:55;6.60;99.90
14682;DHT22;7429;52.498;13.480;2023-02-10T12:57:07;6.50;99.90
14682;DHT22;7429;52.498;13.480;2023-02-10T13:00:14;6.50;99.90
14682;DHT22;7429;52.498;13.480;2023-02-10T13:03:21;6.40;99.90
14682;DHT22;7429;52.498;13.480;2023-02-10T13:06:32;6.40;99.90
14682;DHT22;7429;52.498;13.480;2023-02-10T13:09:40;6.40;99.90
14682;DHT22;7429;52.498;13.480;2023-02-10T13:12:48;6.30;99.90
14682;DHT22;7429;52.498;13.480;2023-02-10T13:15:56;6.30;99.90
14682;DHT22;7429;52.498;13.480;2023-02-10T13:19:05;6.30;99.90
14682;DHT22;7429;52.498;13.480;2023-02-10T13:22:16;6.20;99.90
14682;DHT22;7429;52.498;13.480;2023-02-10T13:25:28;6.20;99.90
14682;DHT22;7429;52.498;13.480;2023-02-10T13:28:47;6.20;99.90
14682;DHT22;7429;52.498;13.480;2023-02-10T13:32:30;6.30;99.90
14682;DHT22;7429;52.498;13.480;2023-02-10T13:35:41;6.30;99.90
14682;DHT22;7429;52.498;13.480;2023-02-10T13:38:48;6.40;99.90
14682;DHT22;7429;52.498;13.480;2023-02-10T13:42:07;6.40;99.90
14682;DHT22;7429;52.498;13.480;2023-02-10T13:45:19;6.40;99.90
14682;DHT22;7429;52.498;13.480;2023-02-10T13:48:28;6.40;99.90
14682;DHT22;7429;52.498;13.480;2023-02-10T13:51:41;6.30;99.90
14682;DHT22;7429;52.498;13.480;2023-02-10T13:54:54;6.30;99.90
14682;DHT22;7429;52.498;13.480;2023-02-10T13:58:26;6.30;99.90
14682;DHT22;7429;52.498;13.480;2023-02-10T14:01:37;6.40;99.90
14682;DHT22;7429;52.498;13.480;2023-02-10T14:04:43;6.30;99.90
14682;DHT22;7429;52.498;13.480;2023-02-10T14:07:49;6.30;99.90
14682;DHT22;7429;52.498;13.480;2023-02-10T14:10:56;6.30;99.90
14682;DHT22;7429;52.498;13.480;2023-02-10T14:14:02;6.30;99.90
14682;DHT22;7429;52.498;13.480;2023-02-10T14:17:24;6.30;99.90
14682;DHT22;7429;52.498;13.480;2023-02-10T14:20:36;6.40;99.90
14682;DHT22;7429;52.498;13.480;2023-02-10T14:23:42;6.30;99.90
14682;DHT22;7429;52.498;13.480;2023-02-10T14:26:51;6.40;99.90
14682;DHT22;7429;52.498;13.480;2023-02-10T14:29:58;6.40;99.90
14682;DHT22;7429;52.498;13.480;2023-02-10T14:33:24;6.40;99.90
14682;DHT22;7429;52.498;13.480;2023-02-10T14:36:29;6.40;99.90
14682;DHT22;7429;52.498;13.480;2023-02-10T14:39:32;6.40;99.90
14682;DHT22;7429;52.498;13.480;2023-02-10T14:42:35;6.40;99.90
14682;DHT22;7429;52.498;13.480;2023-02-10T14:45:38;6.40;99.90
14682;DHT22;7429;52.498;13.480;2023-02-10T14:48:44;6.50;99.90
14682;DHT22;7429;52.498;13.480;2023-02-10T14:51:48;6.40;99.90
14682;DHT22;7429;52.498;13.480;2023-02-10T14:54:51;6.50;99.90
14682;DHT22;7429;52.498;13.480;2023-02-10T14:57:58;6.50;99.90
14682;DHT22;7429;52.498;13.480;2023-02-10T15:01:12;6.50;99.90
14682;DHT22;7429;52.498;13.480;2023-02-10T15:04:22;6.50;99.90
14682;DHT22;7429;52.498;13.480;2023-02-10T15:07:31;6.40;99.90
14682;DHT22;7429;52.498;13.480;2023-02-10T15:10:40;6.40;99.90
14682;DHT22;7429;52.498;13.480;2023-02-10T15:13:49;6.30;99.90
14682;DHT22;7429;52.498;13.480;2023-02-10T15:16:57;6.30;99.90
14682;DHT22;7429;52.498;13.480;2023-02-10T15:20:22;6.20;99.90
14682;DHT22;7429;52.498;13.480;2023-02-10T15:23:32;6.20;99.90
14682;DHT22;7429;52.498;13.480;2023-02-10T15:26:37;6.10;99.90
14682;DHT22;7429;52.498;13.480;2023-02-10T15:29:43;6.10;99.90
14682;DHT22;7429;52.498;13.480;2023-02-10T15:32:48;6.10;99.90
14682;DHT22;7429;52.498;13.480;2023-02-10T15:35:57;6.10;99.90
14682;DHT22;7429;52.498;13.480;2023-02-10T15:39:20;6.10;99.90
14682;DHT22;7429;52.498;13.480;2023-02-10T15:42:27;6.00;99.90
14682;DHT22;7429;52.498;13.480;2023-02-10T15:45:33;6.00;99.90
14682;DHT22;7429;52.498;13.480;2023-02-10T15:48:36;5.90;99.90
14682;DHT22;7429;52.498;13.480;2023-02-10T15:51:45;5.80;99.90
14682;DHT22;7429;52.498;13.480;2023-02-10T15:54:50;5.70;99.90
14682;DHT22;7429;52.498;13.480;2023-02-10T15:57:54;5.60;99.90
14682;DHT22;7429;52.498;13.480;2023-02-10T16:00:57;5.50;99.90
14682;DHT22;7429;52.498;13.480;2023-02-10T16:04:03;5.50;99.90
14682;DHT22;7429;52.498;13.480;2023-02-10T16:07:13;5.40;99.90
14682;DHT22;7429;52.498;13.480;2023-02-10T16:10:24;5.40;99.90
14682;DHT22;7429;52.498;13.480;2023-02-10T16:13:28;5.30;99.90
14682;DHT22;7429;52.498;13.480;2023-02-10T16:16:31;5.20;99.90
14682;DHT22;7429;52.498;13.480;2023-02-10T16:19:34;5.20;99.90
14682;DHT22;7429;52.498;13.480;2023-02-10T16:22:39;5.10;99.90
14682;DHT22;7429;52.498;13.480;2023-02-10T16:25:43;5.10;99.90
14682;DHT22;7429;52.498;13.480;2023-02-10T16:28:50;5.00;99.90
14682;DHT22;7429;52.498;13.480;2023-02-10T16:31:54;5.00;99.90
14682;DHT22;7429;52.498;13.480;2023-02-10T16:34:57;4.90;99.90
14682;DHT22;7429;52.498;13.480;2023-02-10T16:38:02;4.70;99.90
14682;DHT22;7429;52.498;13.480;2023-02-10T16:41:15;4.70;99.90
14682;DHT22;7429;52.498;13.480;2023-02-10T16:44:18;4.60;99.90
14682;DHT22;7429;52.498;13.480;2023-02-10T16:47:21;4.60;99.90
14682;DHT22;7429;52.498;13.480;2023-02-10T16:50:29;4.50;99.90
14682;DHT22;7429;52.498;13.480;2023-02-10T16:53:35;4.50;99.90
14682;DHT22;7429;52.498;13.480;2023-02-10T16:56:40;4.30;99.90
14682;DHT22;7429;52.498;13.480;2023-02-10T16:59:46;4.30;99.90
14682;DHT22;7429;52.498;13.480;2023-02-10T17:02:50;4.20;99.90
14682;DHT22;7429;52.498;13.480;2023-02-10T17:05:53;4.20;99.90
14682;DHT22;7429;52.498;13.480;2023-02-10T17:08:58;4.20;99.90
14682;DHT22;7429;52.498;13.480;2023-02-10T17:12:01;4.20;99.90
14682;DHT22;7429;52.498;13.480;2023-02-10T17:15:05;4.30;99.90
14682;DHT22;7429;52.498;13.480;2023-02-10T17:18:09;4.30;99.90
14682;DHT22;7429;52.498;13.480;2023-02-10T17:21:14;4.30;99.90
14682;DHT22;7429;52.498;13.480;2023-02-10T17:24:19;4.30;99.90
14682;DHT22;7429;52.498;13.480;2023-02-10T17:27:24;4.30;99.90
14682;DHT22;7429;52.498;13.480;2023-02-10T17:30:27;4.30;99.90
14682;DHT22;7429;52.498;13.480;2023-02-10T17:33:43;4.30;99.90
14682;DHT22;7429;52.498;13.480;2023-02-10T17:36:50;4.30;99.90
14682;DHT22;7429;52.498;13.480;2023-02-10T17:39:55;4.30;99.90
14682;DHT22;7429;52.498;13.480;2023-02-10T17:43:08;4.30;99.90
14682;DHT22;7429;52.498;13.480;2023-02-10T17:46:11;4.30;99.90
14682;DHT22;7429;52.498;13.480;2023-02-10T17:49:15;4.30;99.90
14682;DHT22;7429;52.498;13.480;2023-02-10T17:52:18;4.40;99.90
14682;DHT22;7429;52.498;13.480;2023-02-10T17:55:22;4.40;99.90
14682;DHT22;7429;52.498;13.480;2023-02-10T17:58:26;4.40;99.90
14682;DHT22;7429;52.498;13.480;2023-02-10T18:01:29;4.30;99.90
14682;DHT22;7429;52.498;13.480;2023-02-10T18:04:33;4.30;99.90
14682;DHT22;7429;52.498;13.480;2023-02-10T18:07:36;4.30;99.90
14682;DHT22;7429;52.498;13.480;2023-02-10T18:10:42;4.30;99.90
14682;DHT22;7429;52.498;13.480;2023-02-10T18:13:46;4.40;99.90
14682;DHT22;7429;52.498;13.480;2023-02-10T18:16:49;4.40;99.90
14682;DHT22;7429;52.498;13.480;2023-02-10T18:19:52;4.30;99.90
14682;DHT22;7429;52.498;13.480;2023-02-10T18:22:56;4.30;99.90
14682;DHT22;7429;52.498;13.480;2023-02-10T18:26:02;4.20;99.90
14682;DHT22;7429;52.498;13.480;2023-02-10T18:29:07;4.20;99.90
14682;DHT22;7429;52.498;13.480;2023-02-10T18:32:11;4.20;99.90
14682;DHT22;7429;52.498;13.480;2023-02-10T18:35:14;4.20;99.90
14682;DHT22;7429;52.498;13.480;2023-02-10T18:38:17;4.20;99.90
14682;DHT22;7429;52.498;13.480;2023-02-10T18:41:22;4.20;99.90
14682;DHT22;7429;52.498;13.480;2023-02-10T18:44:26;4.10;99.90
14682;DHT22;7429;52.498;13.480;2023-02-10T18:47:33;4.20;99.90
14682;DHT22;7429;52.498;13.480;2023-02-10T18:50:36;4.20;99.90
14682;DHT22;7429;52.498;13.480;2023-02-10T18:53:40;4.10;99.90
14682;DHT22;7429;52.498;13.480;2023-02-10T18:56:45;4.10;99.90
14682;DHT22;7429;52.498;13.480;2023-02-10T18:59:52;4.10;99.90
14682;DHT22;7429;52.498;13.480;2023-02-10T19:03:05;4.00;99.90
14682;DHT22;7429;52.498;13.480;2023-02-10T19:06:12;4.10;99.90
14682;DHT22;7429;52.498;13.480;2023-02-10T19:09:20;4.10;99.90
14682;DHT22;7429;52.498;13.480;2023-02-10T19:12:40;3.90;99.90
14682;DHT22;7429;52.498;13.480;2023-02-10T19:15:48;4.00;99.90
14682;DHT22;7429;52.498;13.480;2023-02-10T19:19:09;4.00;99.90
14682;DHT22;7429;52.498;13.480;2023-02-10T19:22:51;3.90;99.90
14682;DHT22;7429;52.498;13.480;2023-02-10T19:26:13;3.90;99.90
14682;DHT22;7429;52.498;13.480;2023-02-10T19:29:21;3.80;99.90
14682;DHT22;7429;52.498;13.480;2023-02-10T19:32:32;3.90;99.90
14682;DHT22;7429;52.498;13.480;2023-02-10T19:35:36;3.80;99.90
14682;DHT22;7429;52.498;13.480;2023-02-10T19:38:48;3.80;99.90
14682;DHT22;7429;52.498;13.480;2023-02-10T19:41:52;3.80;99.90
14682;DHT22;7429;52.498;13.480;2023-02-10T19:45:04;3.80;99.90
14682;DHT22;7429;52.498;13.480;2023-02-10T19:48:32;3.80;99.90
14682;DHT22;7429;52.498;13.480;2023-02-10T19:51:36;3.80;99.90
14682;DHT22;7429;52.498;13.480;2023-02-10T19:54:39;3.80;99.90
14682;DHT22;7429;52.498;13.480;2023-02-10T19:57:43;3.80;99.90
14682;DHT22;7429;52.498;13.480;2023-02-10T20:00:56;3.70;99.90
14682;DHT22;7429;52.498;13.480;2023-02-10T20:08:48;3.70;99.90
14682;DHT22;7429;52.498;13.480;2023-02-10T20:13:20;3.70;99.90